Quinault, Washington
Current Conditions -  °F | °C
As of 2:45 AM on Monday 20 Oct 2014 (Local Time) from KHQM Reporting Station
Haze Haze  
Wind Chill: 57°   Ceiling: 1500
Heat Index: 57°   Visibility: 4mi
Dew Point: 56°   Wind: 5mph
Humidity: 96%   Direction: 110°ESE
Pressure: 29.69"   Gusts: NA
Location:  47.47°N, 123.85°W
Report Text: KHQM 200945Z AUTO 11004KT 4SM BR SCT009 OVC015 14/13 A2969 RMK AO2 T01390133
Loading
Personal Weather Stations






























Interactive Weather Map
Tropical Storm Tracking
New forecast layout! Learn more

10-Day Weather Forecast

Advertisements
Track Severe Weather on mobile